sensor_id;sensor_type;location;lat;lon;timestamp;pressure;altitude;pressure_sealevel;temperature
68588;BMP180;55560;52.174;20.996;2023-04-23T00:01:58;100295.20;;;12.30
68588;BMP180;55560;52.174;20.996;2023-04-23T00:04:26;100293.80;;;12.22
68588;BMP180;55560;52.174;20.996;2023-04-23T00:06:56;100289.40;;;12.20
68588;BMP180;55560;52.174;20.996;2023-04-23T00:09:25;100290.80;;;12.20
68588;BMP180;55560;52.174;20.996;2023-04-23T00:11:54;100289.80;;;12.20
68588;BMP180;55560;52.174;20.996;2023-04-23T00:14:23;100286.20;;;12.10
68588;BMP180;55560;52.174;20.996;2023-04-23T00:16:52;100288.60;;;12.10
68588;BMP180;55560;52.174;20.996;2023-04-23T00:19:20;100291.00;;;12.10
68588;BMP180;55560;52.174;20.996;2023-04-23T00:21:48;100289.60;;;12.10
68588;BMP180;55560;52.174;20.996;2023-04-23T00:24:16;100290.20;;;12.02
68588;BMP180;55560;52.174;20.996;2023-04-23T00:26:44;100289.20;;;12.00
68588;BMP180;55560;52.174;20.996;2023-04-23T00:29:12;100283.40;;;12.00
68588;BMP180;55560;52.174;20.996;2023-04-23T00:31:40;100277.00;;;11.96
68588;BMP180;55560;52.174;20.996;2023-04-23T00:34:08;100279.00;;;11.90
68588;BMP180;55560;52.174;20.996;2023-04-23T00:36:36;100277.80;;;11.90
68588;BMP180;55560;52.174;20.996;2023-04-23T00:39:04;100278.20;;;11.80
68588;BMP180;55560;52.174;20.996;2023-04-23T00:41:33;100278.00;;;11.80
68588;BMP180;55560;52.174;20.996;2023-04-23T00:44:01;100273.60;;;11.74
68588;BMP180;55560;52.174;20.996;2023-04-23T00:46:29;100272.80;;;11.70
68588;BMP180;55560;52.174;20.996;2023-04-23T00:48:58;100268.60;;;11.70
68588;BMP180;55560;52.174;20.996;2023-04-23T00:51:28;100270.20;;;11.60
68588;BMP180;55560;52.174;20.996;2023-04-23T00:53:56;100276.80;;;11.60
68588;BMP180;55560;52.174;20.996;2023-04-23T00:56:25;100277.60;;;11.60
68588;BMP180;55560;52.174;20.996;2023-04-23T00:58:54;100274.80;;;11.56
68588;BMP180;55560;52.174;20.996;2023-04-23T01:01:23;100274.60;;;11.50
68588;BMP180;55560;52.174;20.996;2023-04-23T01:03:52;100274.00;;;11.50
68588;BMP180;55560;52.174;20.996;2023-04-23T01:06:21;100279.80;;;11.50
68588;BMP180;55560;52.174;20.996;2023-04-23T01:08:51;100283.20;;;11.42
68588;BMP180;55560;52.174;20.996;2023-04-23T01:11:19;100280.60;;;11.40
68588;BMP180;55560;52.174;20.996;2023-04-23T01:13:47;100285.20;;;11.38
68588;BMP180;55560;52.174;20.996;2023-04-23T01:16:15;100288.00;;;11.30
68588;BMP180;55560;52.174;20.996;2023-04-23T01:18:43;100289.00;;;11.30
68588;BMP180;55560;52.174;20.996;2023-04-23T01:21:13;100285.40;;;11.26
68588;BMP180;55560;52.174;20.996;2023-04-23T01:23:41;100281.80;;;11.20
68588;BMP180;55560;52.174;20.996;2023-04-23T01:26:09;100283.60;;;11.20
68588;BMP180;55560;52.174;20.996;2023-04-23T01:28:38;100279.60;;;11.10
68588;BMP180;55560;52.174;20.996;2023-04-23T01:31:06;100279.40;;;11.10
68588;BMP180;55560;52.174;20.996;2023-04-23T01:33:34;100277.20;;;11.10
68588;BMP180;55560;52.174;20.996;2023-04-23T01:36:03;100276.40;;;11.10
68588;BMP180;55560;52.174;20.996;2023-04-23T01:38:32;100273.40;;;11.02
68588;BMP180;55560;52.174;20.996;2023-04-23T01:41:00;100275.60;;;11.00
68588;BMP180;55560;52.174;20.996;2023-04-23T01:43:28;100276.40;;;11.00
68588;BMP180;55560;52.174;20.996;2023-04-23T01:45:57;100277.40;;;10.90
68588;BMP180;55560;52.174;20.996;2023-04-23T01:48:27;100277.20;;;10.90
68588;BMP180;55560;52.174;20.996;2023-04-23T01:50:55;100276.20;;;10.80
68588;BMP180;55560;52.174;20.996;2023-04-23T01:53:23;100275.20;;;10.80
68588;BMP180;55560;52.174;20.996;2023-04-23T01:55:53;100275.00;;;10.80
68588;BMP180;55560;52.174;20.996;2023-04-23T01:58:22;100279.60;;;10.80
68588;BMP180;55560;52.174;20.996;2023-04-23T02:00:52;100276.60;;;10.80
68588;BMP180;55560;52.174;20.996;2023-04-23T02:03:19;100277.00;;;10.80
68588;BMP180;55560;52.174;20.996;2023-04-23T02:05:49;100277.60;;;10.72
68588;BMP180;55560;52.174;20.996;2023-04-23T02:08:18;100277.00;;;10.70
68588;BMP180;55560;52.174;20.996;2023-04-23T02:10:46;100278.20;;;10.70
68588;BMP180;55560;52.174;20.996;2023-04-23T02:13:14;100274.00;;;10.70
68588;BMP180;55560;52.174;20.996;2023-04-23T02:15:42;100274.20;;;10.60
68588;BMP180;55560;52.174;20.996;2023-04-23T02:18:10;100275.60;;;10.60
68588;BMP180;55560;52.174;20.996;2023-04-23T02:20:38;100276.60;;;10.52
68588;BMP180;55560;52.174;20.996;2023-04-23T02:23:08;100274.40;;;10.50
68588;BMP180;55560;52.174;20.996;2023-04-23T02:25:37;100275.00;;;10.50
68588;BMP180;55560;52.174;20.996;2023-04-23T02:28:06;100270.80;;;10.42
68588;BMP180;55560;52.174;20.996;2023-04-23T02:30:34;100272.80;;;10.40
68588;BMP180;55560;52.174;20.996;2023-04-23T02:33:02;100271.20;;;10.40
68588;BMP180;55560;52.174;20.996;2023-04-23T02:35:30;100271.80;;;10.40
68588;BMP180;55560;52.174;20.996;2023-04-23T02:37:58;100268.00;;;10.38
68588;BMP180;55560;52.174;20.996;2023-04-23T02:40:26;100269.00;;;10.30
68588;BMP180;55560;52.174;20.996;2023-04-23T02:42:54;100269.40;;;10.30
68588;BMP180;55560;52.174;20.996;2023-04-23T02:45:22;100264.20;;;10.30
68588;BMP180;55560;52.174;20.996;2023-04-23T02:47:51;100264.40;;;10.30
68588;BMP180;55560;52.174;20.996;2023-04-23T02:50:20;100263.00;;;10.30
68588;BMP180;55560;52.174;20.996;2023-04-23T02:52:48;100265.20;;;10.22
68588;BMP180;55560;52.174;20.996;2023-04-23T02:55:16;100266.80;;;10.20
68588;BMP180;55560;52.174;20.996;2023-04-23T02:57:44;100263.20;;;10.20
68588;BMP180;55560;52.174;20.996;2023-04-23T03:00:12;100271.40;;;10.10
68588;BMP180;55560;52.174;20.996;2023-04-23T03:02:42;100264.20;;;10.10
68588;BMP180;55560;52.174;20.996;2023-04-23T03:05:11;100269.20;;;10.10
68588;BMP180;55560;52.174;20.996;2023-04-23T03:07:39;100267.20;;;10.10
68588;BMP180;55560;52.174;20.996;2023-04-23T03:10:08;100265.60;;;10.04
68588;BMP180;55560;52.174;20.996;2023-04-23T03:12:36;100267.20;;;10.00
68588;BMP180;55560;52.174;20.996;2023-04-23T03:15:05;100266.00;;;10.00
68588;BMP180;55560;52.174;20.996;2023-04-23T03:17:34;100270.00;;;10.00
68588;BMP180;55560;52.174;20.996;2023-04-23T03:20:04;100267.60;;;10.00
68588;BMP180;55560;52.174;20.996;2023-04-23T03:22:32;100263.60;;;10.00
68588;BMP180;55560;52.174;20.996;2023-04-23T03:25:00;100258.80;;;10.00
68588;BMP180;55560;52.174;20.996;2023-04-23T03:27:28;100257.20;;;10.00
68588;BMP180;55560;52.174;20.996;2023-04-23T03:29:56;100263.00;;;9.90
68588;BMP180;55560;52.174;20.996;2023-04-23T03:32:27;100263.40;;;9.90
68588;BMP180;55560;52.174;20.996;2023-04-23T03:34:55;100261.20;;;9.90
68588;BMP180;55560;52.174;20.996;2023-04-23T03:37:23;100258.00;;;9.80
68588;BMP180;55560;52.174;20.996;2023-04-23T03:39:51;100265.00;;;9.80
68588;BMP180;55560;52.174;20.996;2023-04-23T03:42:19;100259.80;;;9.80
68588;BMP180;55560;52.174;20.996;2023-04-23T03:44:47;100259.20;;;9.80
68588;BMP180;55560;52.174;20.996;2023-04-23T03:47:15;100258.20;;;9.70
68588;BMP180;55560;52.174;20.996;2023-04-23T03:49:44;100256.60;;;9.70
68588;BMP180;55560;52.174;20.996;2023-04-23T03:52:12;100253.20;;;9.70
68588;BMP180;55560;52.174;20.996;2023-04-23T03:54:41;100257.80;;;9.68
68588;BMP180;55560;52.174;20.996;2023-04-23T03:57:13;100254.80;;;9.68
68588;BMP180;55560;52.174;20.996;2023-04-23T03:59:59;100258.80;;;9.66
68588;BMP180;55560;52.174;20.996;2023-04-23T04:02:27;100255.80;;;9.68
68588;BMP180;55560;52.174;20.996;2023-04-23T04:04:55;100257.80;;;9.70
68588;BMP180;55560;52.174;20.996;2023-04-23T04:07:24;100262.20;;;9.70
68588;BMP180;55560;52.174;20.996;2023-04-23T04:09:55;100258.40;;;9.70
68588;BMP180;55560;52.174;20.996;2023-04-23T04:12:25;100261.00;;;9.70
68588;BMP180;55560;52.174;20.996;2023-04-23T04:14:53;100262.20;;;9.70
68588;BMP180;55560;52.174;20.996;2023-04-23T04:17:21;100264.20;;;9.78
68588;BMP180;55560;52.174;20.996;2023-04-23T04:19:49;100264.80;;;9.80
68588;BMP180;55560;52.174;20.996;2023-04-23T04:22:16;100265.40;;;9.80
68588;BMP180;55560;52.174;20.996;2023-04-23T04:24:44;100263.80;;;9.82
68588;BMP180;55560;52.174;20.996;2023-04-23T04:27:14;100262.00;;;9.86
68588;BMP180;55560;52.174;20.996;2023-04-23T04:29:42;100264.40;;;9.90
68588;BMP180;55560;52.174;20.996;2023-04-23T04:32:10;100262.40;;;9.90
68588;BMP180;55560;52.174;20.996;2023-04-23T04:34:38;100261.40;;;9.96
68588;BMP180;55560;52.174;20.996;2023-04-23T04:37:06;100261.00;;;10.00
68588;BMP180;55560;52.174;20.996;2023-04-23T04:39:34;100260.60;;;10.06
68588;BMP180;55560;52.174;20.996;2023-04-23T04:42:03;100261.00;;;10.10
68588;BMP180;55560;52.174;20.996;2023-04-23T04:44:33;100262.20;;;10.10
68588;BMP180;55560;52.174;20.996;2023-04-23T04:47:05;100261.00;;;10.20
68588;BMP180;55560;52.174;20.996;2023-04-23T04:49:34;100261.80;;;10.20
68588;BMP180;55560;52.174;20.996;2023-04-23T04:52:03;100266.00;;;10.30
68588;BMP180;55560;52.174;20.996;2023-04-23T04:54:30;100265.60;;;10.30
68588;BMP180;55560;52.174;20.996;2023-04-23T04:56:58;100264.40;;;10.30
68588;BMP180;55560;52.174;20.996;2023-04-23T04:59:27;100263.40;;;10.40
68588;BMP180;55560;52.174;20.996;2023-04-23T05:01:55;100260.80;;;10.46
68588;BMP180;55560;52.174;20.996;2023-04-23T05:04:23;100262.00;;;10.50
68588;BMP180;55560;52.174;20.996;2023-04-23T05:06:51;100255.20;;;10.60
68588;BMP180;55560;52.174;20.996;2023-04-23T05:09:19;100256.80;;;10.60
68588;BMP180;55560;52.174;20.996;2023-04-23T05:11:47;100259.80;;;10.70
68588;BMP180;55560;52.174;20.996;2023-04-23T05:14:15;100258.00;;;10.80
68588;BMP180;55560;52.174;20.996;2023-04-23T05:16:43;100259.40;;;10.90
68588;BMP180;55560;52.174;20.996;2023-04-23T05:19:11;100256.80;;;11.00
68588;BMP180;55560;52.174;20.996;2023-04-23T05:21:39;100259.80;;;11.08
68588;BMP180;55560;52.174;20.996;2023-04-23T05:24:07;100261.40;;;11.20
68588;BMP180;55560;52.174;20.996;2023-04-23T05:26:35;100261.40;;;11.28
68588;BMP180;55560;52.174;20.996;2023-04-23T05:29:03;100262.20;;;11.40
68588;BMP180;55560;52.174;20.996;2023-04-23T05:31:31;100258.40;;;11.50
68588;BMP180;55560;52.174;20.996;2023-04-23T05:33:59;100263.40;;;11.62
68588;BMP180;55560;52.174;20.996;2023-04-23T05:36:27;100263.00;;;11.80
68588;BMP180;55560;52.174;20.996;2023-04-23T05:38:55;100266.20;;;11.90
68588;BMP180;55560;52.174;20.996;2023-04-23T05:41:23;100259.00;;;12.10
68588;BMP180;55560;52.174;20.996;2023-04-23T05:43:51;100258.20;;;12.30
68588;BMP180;55560;52.174;20.996;2023-04-23T05:46:19;100255.60;;;12.50
68588;BMP180;55560;52.174;20.996;2023-04-23T05:48:47;100254.00;;;13.04
68588;BMP180;55560;52.174;20.996;2023-04-23T05:51:16;100247.60;;;14.28
68588;BMP180;55560;52.174;20.996;2023-04-23T05:53:44;100255.80;;;15.24
68588;BMP180;55560;52.174;20.996;2023-04-23T05:56:12;100252.80;;;16.30
68588;BMP180;55560;52.174;20.996;2023-04-23T05:58:40;100257.60;;;17.12
68588;BMP180;55560;52.174;20.996;2023-04-23T06:01:08;100252.00;;;17.66
68588;BMP180;55560;52.174;20.996;2023-04-23T06:03:36;100251.20;;;18.00
68588;BMP180;55560;52.174;20.996;2023-04-23T06:06:05;100255.40;;;18.24
68588;BMP180;55560;52.174;20.996;2023-04-23T06:08:33;100250.40;;;17.94
68588;BMP180;55560;52.174;20.996;2023-04-23T06:11:01;100255.00;;;17.60
68588;BMP180;55560;52.174;20.996;2023-04-23T06:13:29;100248.40;;;17.40
68588;BMP180;55560;52.174;20.996;2023-04-23T06:15:57;100251.20;;;17.42
68588;BMP180;55560;52.174;20.996;2023-04-23T06:18:25;100251.40;;;17.80
68588;BMP180;55560;52.174;20.996;2023-04-23T06:20:54;100251.20;;;18.20
68588;BMP180;55560;52.174;20.996;2023-04-23T06:23:24;100255.40;;;18.20
68588;BMP180;55560;52.174;20.996;2023-04-23T06:25:51;100254.20;;;17.90
68588;BMP180;55560;52.174;20.996;2023-04-23T06:28:19;100259.20;;;17.62
68588;BMP180;55560;52.174;20.996;2023-04-23T06:31:08;100258.00;;;17.40
68588;BMP180;55560;52.174;20.996;2023-04-23T06:33:39;100258.80;;;17.30
68588;BMP180;55560;52.174;20.996;2023-04-23T06:36:07;100254.40;;;17.20
68588;BMP180;55560;52.174;20.996;2023-04-23T06:38:37;100255.00;;;17.20
68588;BMP180;55560;52.174;20.996;2023-04-23T06:41:06;100253.20;;;17.46
68588;BMP180;55560;52.174;20.996;2023-04-23T06:43:34;100251.60;;;18.08
68588;BMP180;55560;52.174;20.996;2023-04-23T06:46:22;100247.60;;;18.52
68588;BMP180;55560;52.174;20.996;2023-04-23T06:48:50;100249.80;;;19.70
68588;BMP180;55560;52.174;20.996;2023-04-23T06:51:18;100248.40;;;20.86
68588;BMP180;55560;52.174;20.996;2023-04-23T06:53:46;100251.80;;;21.30
68588;BMP180;55560;52.174;20.996;2023-04-23T06:56:14;100248.80;;;21.48
68588;BMP180;55560;52.174;20.996;2023-04-23T06:58:42;100254.40;;;21.70
68588;BMP180;55560;52.174;20.996;2023-04-23T07:01:18;100241.60;;;22.02
68588;BMP180;55560;52.174;20.996;2023-04-23T07:03:46;100244.60;;;22.50
68588;BMP180;55560;52.174;20.996;2023-04-23T07:06:18;100249.80;;;22.50
68588;BMP180;55560;52.174;20.996;2023-04-23T07:08:45;100248.00;;;22.08
68588;BMP180;55560;52.174;20.996;2023-04-23T07:11:13;100251.80;;;21.74
68588;BMP180;55560;52.174;20.996;2023-04-23T07:13:41;100247.20;;;21.44
68588;BMP180;55560;52.174;20.996;2023-04-23T07:16:09;100242.60;;;21.10
68588;BMP180;55560;52.174;20.996;2023-04-23T07:18:37;100242.40;;;20.80
68588;BMP180;55560;52.174;20.996;2023-04-23T07:21:05;100243.80;;;20.40
68588;BMP180;55560;52.174;20.996;2023-04-23T07:23:33;100242.20;;;20.02
68588;BMP180;55560;52.174;20.996;2023-04-23T07:26:01;100240.60;;;19.80
68588;BMP180;55560;52.174;20.996;2023-04-23T07:28:30;100235.40;;;19.70
68588;BMP180;55560;52.174;20.996;2023-04-23T07:30:58;100236.20;;;19.52
68588;BMP180;55560;52.174;20.996;2023-04-23T07:33:27;100234.60;;;19.42
68588;BMP180;55560;52.174;20.996;2023-04-23T07:35:55;100234.00;;;19.34
68588;BMP180;55560;52.174;20.996;2023-04-23T07:38:23;100230.80;;;19.28
68588;BMP180;55560;52.174;20.996;2023-04-23T07:40:54;100222.60;;;19.20
68588;BMP180;55560;52.174;20.996;2023-04-23T07:43:22;100223.20;;;19.20
68588;BMP180;55560;52.174;20.996;2023-04-23T07:45:50;100220.00;;;19.20
68588;BMP180;55560;52.174;20.996;2023-04-23T07:48:18;100224.40;;;19.20
68588;BMP180;55560;52.174;20.996;2023-04-23T07:50:46;100227.00;;;19.20
68588;BMP180;55560;52.174;20.996;2023-04-23T07:53:15;100222.60;;;19.22
68588;BMP180;55560;52.174;20.996;2023-04-23T07:55:43;100222.40;;;19.30
68588;BMP180;55560;52.174;20.996;2023-04-23T07:58:11;100226.40;;;19.30
68588;BMP180;55560;52.174;20.996;2023-04-23T08:00:39;100226.80;;;19.40
68588;BMP180;55560;52.174;20.996;2023-04-23T08:03:06;100224.20;;;19.48
68588;BMP180;55560;52.174;20.996;2023-04-23T08:05:35;100226.00;;;19.50
68588;BMP180;55560;52.174;20.996;2023-04-23T08:08:06;100227.00;;;19.50
68588;BMP180;55560;52.174;20.996;2023-04-23T08:10:35;100221.20;;;19.70
68588;BMP180;55560;52.174;20.996;2023-04-23T08:13:03;100222.60;;;20.32
68588;BMP180;55560;52.174;20.996;2023-04-23T08:15:31;100218.60;;;20.70
68588;BMP180;55560;52.174;20.996;2023-04-23T08:17:59;100219.20;;;21.00
68588;BMP180;55560;52.174;20.996;2023-04-23T08:20:27;100212.80;;;21.10
68588;BMP180;55560;52.174;20.996;2023-04-23T08:22:55;100215.20;;;20.94
68588;BMP180;55560;52.174;20.996;2023-04-23T08:25:26;100214.80;;;20.80
68588;BMP180;55560;52.174;20.996;2023-04-23T08:27:54;100209.40;;;20.70
68588;BMP180;55560;52.174;20.996;2023-04-23T08:30:24;100211.40;;;20.60
68588;BMP180;55560;52.174;20.996;2023-04-23T08:32:52;100202.80;;;20.60
68588;BMP180;55560;52.174;20.996;2023-04-23T08:35:22;100204.40;;;20.50
68588;BMP180;55560;52.174;20.996;2023-04-23T08:37:50;100209.80;;;20.40
68588;BMP180;55560;52.174;20.996;2023-04-23T08:40:18;100208.00;;;20.40
68588;BMP180;55560;52.174;20.996;2023-04-23T08:42:53;100210.40;;;20.30
68588;BMP180;55560;52.174;20.996;2023-04-23T08:45:24;100211.40;;;20.24
68588;BMP180;55560;52.174;20.996;2023-04-23T08:47:59;100204.40;;;20.20
68588;BMP180;55560;52.174;20.996;2023-04-23T08:50:29;100199.20;;;20.20
68588;BMP180;55560;52.174;20.996;2023-04-23T08:52:58;100197.00;;;20.20
68588;BMP180;55560;52.174;20.996;2023-04-23T08:55:25;100195.20;;;20.18
68588;BMP180;55560;52.174;20.996;2023-04-23T08:57:57;100193.80;;;20.10
68588;BMP180;55560;52.174;20.996;2023-04-23T09:00:25;100186.40;;;20.10
68588;BMP180;55560;52.174;20.996;2023-04-23T09:02:53;100187.60;;;20.20
68588;BMP180;55560;52.174;20.996;2023-04-23T09:05:21;100185.40;;;20.20
68588;BMP180;55560;52.174;20.996;2023-04-23T09:07:50;100183.60;;;20.20
68588;BMP180;55560;52.174;20.996;2023-04-23T09:10:19;100178.20;;;20.20
68588;BMP180;55560;52.174;20.996;2023-04-23T09:12:47;100177.40;;;20.20
68588;BMP180;55560;52.174;20.996;2023-04-23T09:15:16;100171.80;;;20.20
68588;BMP180;55560;52.174;20.996;2023-04-23T09:17:46;100168.20;;;20.30
68588;BMP180;55560;52.174;20.996;2023-04-23T09:20:14;100170.60;;;20.32
68588;BMP180;55560;52.174;20.996;2023-04-23T09:22:48;100169.60;;;20.40
68588;BMP180;55560;52.174;20.996;2023-04-23T09:25:19;100171.60;;;20.48
68588;BMP180;55560;52.174;20.996;2023-04-23T09:27:50;100170.60;;;20.50
68588;BMP180;55560;52.174;20.996;2023-04-23T09:30:18;100173.80;;;20.50
68588;BMP180;55560;52.174;20.996;2023-04-23T09:32:46;100171.00;;;20.60
68588;BMP180;55560;52.174;20.996;2023-04-23T09:35:17;100166.20;;;20.58
68588;BMP180;55560;52.174;20.996;2023-04-23T09:37:50;100168.40;;;20.60
68588;BMP180;55560;52.174;20.996;2023-04-23T09:40:23;100165.80;;;20.60
68588;BMP180;55560;52.174;20.996;2023-04-23T09:42:51;100164.40;;;20.60
68588;BMP180;55560;52.174;20.996;2023-04-23T09:45:22;100163.80;;;20.60
68588;BMP180;55560;52.174;20.996;2023-04-23T09:47:55;100156.80;;;20.70
68588;BMP180;55560;52.174;20.996;2023-04-23T09:50:38;100152.00;;;20.78
68588;BMP180;55560;52.174;20.996;2023-04-23T09:53:11;100152.00;;;20.80
68588;BMP180;55560;52.174;20.996;2023-04-23T09:55:43;100145.80;;;20.80
68588;BMP180;55560;52.174;20.996;2023-04-23T09:58:14;100147.80;;;20.86
68588;BMP180;55560;52.174;20.996;2023-04-23T10:00:42;100141.60;;;20.90
68588;BMP180;55560;52.174;20.996;2023-04-23T10:03:10;100141.40;;;20.90
68588;BMP180;55560;52.174;20.996;2023-04-23T10:05:41;100139.00;;;20.90
68588;BMP180;55560;52.174;20.996;2023-04-23T10:08:13;100142.00;;;20.90
68588;BMP180;55560;52.174;20.996;2023-04-23T10:10:43;100137.60;;;20.90
68588;BMP180;55560;52.174;20.996;2023-04-23T10:13:31;100135.20;;;21.00
68588;BMP180;55560;52.174;20.996;2023-04-23T10:15:59;100124.40;;;21.06
68588;BMP180;55560;52.174;20.996;2023-04-23T10:18:50;100126.40;;;21.10
68588;BMP180;55560;52.174;20.996;2023-04-23T10:21:23;100121.20;;;21.10
68588;BMP180;55560;52.174;20.996;2023-04-23T10:23:54;100121.20;;;21.10
68588;BMP180;55560;52.174;20.996;2023-04-23T10:26:24;100121.00;;;21.16
68588;BMP180;55560;52.174;20.996;2023-04-23T10:28:53;100117.20;;;21.20
68588;BMP180;55560;52.174;20.996;2023-04-23T10:31:25;100116.40;;;21.20
68588;BMP180;55560;52.174;20.996;2023-04-23T10:33:55;100115.00;;;21.30
68588;BMP180;55560;52.174;20.996;2023-04-23T10:36:26;100110.60;;;21.30
68588;BMP180;55560;52.174;20.996;2023-04-23T10:38:55;100107.40;;;21.32
68588;BMP180;55560;52.174;20.996;2023-04-23T10:41:34;100105.80;;;21.38
68588;BMP180;55560;52.174;20.996;2023-04-23T10:44:04;100104.60;;;21.40
68588;BMP180;55560;52.174;20.996;2023-04-23T10:46:34;100103.60;;;21.40
68588;BMP180;55560;52.174;20.996;2023-04-23T10:49:15;100102.00;;;21.40
68588;BMP180;55560;52.174;20.996;2023-04-23T10:51:47;100099.00;;;21.40
68588;BMP180;55560;52.174;20.996;2023-04-23T10:54:18;100092.40;;;21.40
68588;BMP180;55560;52.174;20.996;2023-04-23T10:57:05;100093.80;;;21.40
68588;BMP180;55560;52.174;20.996;2023-04-23T10:59:41;100086.40;;;21.42
68588;BMP180;55560;52.174;20.996;2023-04-23T11:02:18;100085.20;;;21.50
68588;BMP180;55560;52.174;20.996;2023-04-23T11:04:57;100088.40;;;21.50
68588;BMP180;55560;52.174;20.996;2023-04-23T11:07:31;100085.00;;;21.60
68588;BMP180;55560;52.174;20.996;2023-04-23T11:10:11;100083.20;;;21.70
68588;BMP180;55560;52.174;20.996;2023-04-23T11:12:40;100084.40;;;21.74
68588;BMP180;55560;52.174;20.996;2023-04-23T11:15:17;100082.00;;;21.80
68588;BMP180;55560;52.174;20.996;2023-04-23T11:20:20;100071.40;;;21.90
68588;BMP180;55560;52.174;20.996;2023-04-23T11:22:50;100065.00;;;21.90
68588;BMP180;55560;52.174;20.996;2023-04-23T11:25:22;100063.00;;;21.90
68588;BMP180;55560;52.174;20.996;2023-04-23T11:27:53;100059.80;;;21.90
68588;BMP180;55560;52.174;20.996;2023-04-23T11:30:27;100063.40;;;22.00
68588;BMP180;55560;52.174;20.996;2023-04-23T11:32:58;100063.80;;;22.00
68588;BMP180;55560;52.174;20.996;2023-04-23T11:35:27;100059.60;;;22.00
68588;BMP180;55560;52.174;20.996;2023-04-23T11:37:57;100064.00;;;22.12
68588;BMP180;55560;52.174;20.996;2023-04-23T11:40:24;100061.80;;;22.20
68588;BMP180;55560;52.174;20.996;2023-04-23T11:42:54;100058.40;;;22.10
68588;BMP180;55560;52.174;20.996;2023-04-23T11:45:25;100064.00;;;22.20
68588;BMP180;55560;52.174;20.996;2023-04-23T11:47:56;100056.00;;;22.20
68588;BMP180;55560;52.174;20.996;2023-04-23T11:50:27;100056.40;;;22.20
68588;BMP180;55560;52.174;20.996;2023-04-23T11:52:56;100045.40;;;22.20
68588;BMP180;55560;52.174;20.996;2023-04-23T11:55:27;100045.00;;;22.24
68588;BMP180;55560;52.174;20.996;2023-04-23T11:57:56;100049.40;;;22.30
68588;BMP180;55560;52.174;20.996;2023-04-23T12:00:26;100047.40;;;22.42
68588;BMP180;55560;52.174;20.996;2023-04-23T12:03:00;100046.00;;;22.50
68588;BMP180;55560;52.174;20.996;2023-04-23T12:05:37;100046.80;;;22.58
68588;BMP180;55560;52.174;20.996;2023-04-23T12:08:19;100046.60;;;22.60
68588;BMP180;55560;52.174;20.996;2023-04-23T12:13:20;100043.00;;;22.80
68588;BMP180;55560;52.174;20.996;2023-04-23T12:16:03;100041.40;;;22.90
68588;BMP180;55560;52.174;20.996;2023-04-23T12:18:39;100035.20;;;23.10
68588;BMP180;55560;52.174;20.996;2023-04-23T12:21:13;100038.20;;;23.20
68588;BMP180;55560;52.174;20.996;2023-04-23T12:23:42;100029.80;;;23.30
68588;BMP180;55560;52.174;20.996;2023-04-23T12:26:14;100024.80;;;23.40
68588;BMP180;55560;52.174;20.996;2023-04-23T12:28:58;100028.60;;;23.50
68588;BMP180;55560;52.174;20.996;2023-04-23T12:31:29;100029.60;;;23.60
68588;BMP180;55560;52.174;20.996;2023-04-23T12:34:05;100021.00;;;23.70
68588;BMP180;55560;52.174;20.996;2023-04-23T12:36:37;100019.20;;;23.88
68588;BMP180;55560;52.174;20.996;2023-04-23T12:39:31;100015.00;;;24.00
68588;BMP180;55560;52.174;20.996;2023-04-23T12:42:03;100016.40;;;24.20
68588;BMP180;55560;52.174;20.996;2023-04-23T12:44:37;100007.40;;;24.30
68588;BMP180;55560;52.174;20.996;2023-04-23T12:47:07;100014.40;;;24.50
68588;BMP180;55560;52.174;20.996;2023-04-23T12:49:37;100011.40;;;24.60
68588;BMP180;55560;52.174;20.996;2023-04-23T12:52:07;100005.80;;;24.70
68588;BMP180;55560;52.174;20.996;2023-04-23T12:54:39;100005.80;;;24.80
68588;BMP180;55560;52.174;20.996;2023-04-23T12:57:11;100001.20;;;24.90
68588;BMP180;55560;52.174;20.996;2023-04-23T12:59:39;99995.80;;;24.90
68588;BMP180;55560;52.174;20.996;2023-04-23T13:02:08;99992.40;;;25.00
68588;BMP180;55560;52.174;20.996;2023-04-23T13:04:37;99996.80;;;25.10
68588;BMP180;55560;52.174;20.996;2023-04-23T13:07:05;99994.00;;;25.20
68588;BMP180;55560;52.174;20.996;2023-04-23T13:09:33;99990.60;;;25.30
68588;BMP180;55560;52.174;20.996;2023-04-23T13:12:03;99986.80;;;25.50
68588;BMP180;55560;52.174;20.996;2023-04-23T13:14:31;99987.20;;;25.70
68588;BMP180;55560;52.174;20.996;2023-04-23T13:16:59;99980.40;;;25.92
68588;BMP180;55560;52.174;20.996;2023-04-23T13:19:27;99972.80;;;26.10
68588;BMP180;55560;52.174;20.996;2023-04-23T13:21:55;99970.40;;;26.30
68588;BMP180;55560;52.174;20.996;2023-04-23T13:24:22;99977.00;;;26.20
68588;BMP180;55560;52.174;20.996;2023-04-23T13:26:50;99970.40;;;26.00
68588;BMP180;55560;52.174;20.996;2023-04-23T13:29:18;99967.00;;;26.00
68588;BMP180;55560;52.174;20.996;2023-04-23T13:31:46;99962.80;;;26.20
68588;BMP180;55560;52.174;20.996;2023-04-23T13:34:14;99963.00;;;26.40
68588;BMP180;55560;52.174;20.996;2023-04-23T13:36:42;99960.00;;;26.50
68588;BMP180;55560;52.174;20.996;2023-04-23T13:39:10;99959.40;;;26.58
68588;BMP180;55560;52.174;20.996;2023-04-23T13:41:40;99956.00;;;26.52
68588;BMP180;55560;52.174;20.996;2023-04-23T13:44:08;99954.00;;;26.56
68588;BMP180;55560;52.174;20.996;2023-04-23T13:46:36;99959.60;;;26.80
68588;BMP180;55560;52.174;20.996;2023-04-23T13:49:06;99957.00;;;27.00
68588;BMP180;55560;52.174;20.996;2023-04-23T13:51:34;99945.20;;;27.26
68588;BMP180;55560;52.174;20.996;2023-04-23T13:54:03;99947.80;;;28.00
68588;BMP180;55560;52.174;20.996;2023-04-23T13:56:31;99944.60;;;28.90
68588;BMP180;55560;52.174;20.996;2023-04-23T13:58:59;99942.40;;;29.94
68588;BMP180;55560;52.174;20.996;2023-04-23T14:01:47;99940.80;;;31.32
68588;BMP180;55560;52.174;20.996;2023-04-23T14:04:20;99939.20;;;32.40
68588;BMP180;55560;52.174;20.996;2023-04-23T14:06:50;99944.00;;;33.62